createdAt,value
2019-06-08T00:00:50.757Z,41.80
2019-06-08T00:03:23.330Z,28.12
2019-06-08T00:05:55.314Z,21.50
2019-06-08T00:08:27.393Z,28.42
2019-06-08T00:10:59.407Z,24.32
2019-06-08T00:13:31.418Z,36.13
2019-06-08T00:16:03.547Z,27.40
2019-06-08T00:18:35.654Z,37.33
2019-06-08T00:21:07.660Z,29.37
2019-06-08T00:23:39.605Z,45.85
2019-06-08T00:26:11.446Z,55.98
2019-06-08T00:28:44.505Z,51.95
2019-06-08T00:31:17.372Z,97.12
2019-06-08T00:33:49.485Z,54.38
2019-06-08T00:36:22.991Z,57.80
2019-06-08T00:38:55.474Z,43.55
2019-06-08T00:41:27.347Z,29.63
2019-06-08T00:43:59.513Z,28.07
2019-06-08T00:46:31.760Z,38.60
2019-06-08T00:49:03.738Z,25.55
2019-06-08T00:51:35.657Z,31.07
2019-06-08T00:54:07.576Z,36.20
2019-06-08T00:56:39.615Z,32.50
2019-06-08T00:59:11.704Z,31.42
2019-06-08T01:01:43.775Z,35.45
2019-06-08T01:04:18.588Z,40.45
2019-06-08T01:06:49.576Z,54.88
2019-06-08T01:09:22.167Z,64.90
2019-06-08T01:11:54.164Z,48.33
2019-06-08T01:14:27.076Z,58.13
2019-06-08T01:16:59.333Z,68.37
2019-06-08T01:19:31.518Z,49.45
2019-06-08T01:22:03.544Z,58.38
2019-06-08T01:24:35.726Z,58.00
2019-06-08T01:27:07.977Z,56.90
2019-06-08T01:29:40.168Z,58.17
2019-06-08T01:32:12.552Z,62.33
2019-06-08T01:34:44.710Z,52.27
2019-06-08T01:37:17.084Z,56.42
2019-06-08T01:39:49.651Z,55.67
2019-06-08T01:42:23.337Z,53.98
2019-06-08T01:44:55.523Z,53.63
2019-06-08T01:47:28.255Z,48.20
2019-06-08T01:50:00.655Z,46.48
2019-06-08T01:52:32.965Z,32.58
2019-06-08T01:55:07.667Z,26.62
2019-06-08T01:57:39.635Z,25.15
2019-06-08T02:00:29.839Z,21.87
2019-06-08T02:02:45.399Z,23.00
2019-06-08T02:05:17.528Z,17.25
2019-06-08T02:07:49.622Z,18.23
2019-06-08T02:10:21.669Z,17.67
2019-06-08T02:12:53.771Z,22.15
2019-06-08T02:15:27.097Z,25.02
2019-06-08T02:17:59.445Z,24.50
2019-06-08T02:20:31.476Z,46.65
2019-06-08T02:23:03.398Z,43.80
2019-06-08T02:25:35.682Z,40.48
2019-06-08T02:28:08.108Z,42.85
2019-06-08T02:30:41.845Z,68.70
2019-06-08T02:33:13.809Z,51.35
2019-06-08T02:35:45.942Z,49.75
2019-06-08T02:38:18.103Z,41.40
2019-06-08T02:40:50.077Z,47.43
2019-06-08T02:43:22.159Z,37.67
2019-06-08T02:45:54.298Z,41.20
2019-06-08T02:48:26.481Z,54.25
2019-06-08T02:50:58.520Z,39.83
2019-06-08T02:53:32.162Z,34.10
2019-06-08T02:56:04.750Z,34.33
2019-06-08T02:58:39.105Z,43.38
2019-06-08T03:01:10.572Z,44.18
2019-06-08T03:03:42.487Z,43.42
2019-06-08T03:06:14.514Z,42.62
2019-06-08T03:08:46.427Z,40.63
2019-06-08T03:11:20.266Z,34.40
2019-06-08T03:13:52.129Z,24.43
2019-06-08T03:16:24.176Z,28.45
2019-06-08T03:18:56.298Z,25.10
2019-06-08T03:21:28.276Z,20.65
2019-06-08T03:24:00.519Z,33.55
2019-06-08T03:26:34.108Z,33.13
2019-06-08T03:29:06.307Z,36.33
2019-06-08T03:31:43.975Z,66.33
2019-06-08T03:34:11.896Z,84.07
2019-06-08T03:36:54.404Z,77.85
2019-06-08T03:39:17.217Z,70.57
2019-06-08T03:41:49.230Z,81.05
2019-06-08T03:44:21.088Z,55.58
2019-06-08T03:46:53.139Z,45.45
2019-06-08T03:49:41.422Z,41.55
2019-06-08T03:51:58.622Z,45.05
2019-06-08T03:54:30.368Z,34.98
2019-06-08T03:57:02.554Z,32.23
2019-06-08T03:59:36.062Z,27.15
2019-06-08T04:02:08.307Z,23.73
2019-06-08T04:04:41.837Z,25.60
2019-06-08T04:07:14.185Z,37.98
2019-06-08T04:09:46.118Z,31.27
2019-06-08T04:12:19.552Z,22.45
2019-06-08T04:14:51.605Z,26.48
2019-06-08T04:17:23.384Z,33.88
2019-06-08T04:20:10.604Z,32.73
2019-06-08T04:22:28.920Z,18.15
2019-06-08T04:25:01.812Z,20.97
2019-06-08T04:27:33.768Z,19.32
2019-06-08T04:30:08.416Z,19.32
2019-06-08T04:32:42.865Z,16.48
2019-06-08T04:35:14.874Z,14.78
2019-06-08T04:37:47.182Z,14.33
2019-06-08T04:40:19.736Z,20.08
2019-06-08T04:42:51.682Z,19.92
2019-06-08T04:45:24.583Z,21.07
2019-06-08T04:47:56.830Z,25.25
2019-06-08T04:50:28.754Z,21.35
2019-06-08T04:53:00.754Z,20.37
2019-06-08T04:55:32.668Z,18.32
2019-06-08T04:58:05.070Z,20.45
2019-06-08T05:00:39.054Z,26.05
2019-06-08T05:03:10.811Z,19.90
2019-06-08T05:05:43.480Z,22.70
2019-06-08T05:08:16.908Z,19.52
2019-06-08T05:10:49.712Z,10.30
2019-06-08T05:13:21.860Z,14.60
2019-06-08T05:15:53.721Z,15.23
2019-06-08T05:18:26.187Z,11.35
2019-06-08T05:20:58.289Z,25.92
2019-06-08T05:23:30.325Z,32.17
2019-06-08T05:26:02.572Z,47.95
2019-06-08T05:28:34.475Z,52.58
2019-06-08T05:31:06.238Z,60.78
2019-06-08T05:33:39.196Z,34.80
2019-06-08T05:36:11.231Z,45.05
2019-06-08T05:38:43.472Z,33.23
2019-06-08T05:41:15.532Z,32.30
2019-06-08T05:43:47.707Z,28.60
2019-06-08T05:46:19.854Z,18.55
2019-06-08T05:48:51.640Z,15.18
2019-06-08T05:51:23.539Z,18.57
2019-06-08T05:53:55.596Z,18.00
2019-06-08T05:56:27.536Z,21.77
2019-06-08T05:58:59.518Z,27.62
2019-06-08T06:01:31.478Z,22.27
2019-06-08T06:04:03.565Z,21.50
2019-06-08T06:06:35.567Z,21.95
2019-06-08T06:09:08.293Z,19.50
2019-06-08T06:11:40.668Z,14.30
2019-06-08T06:14:12.690Z,10.88
2019-06-08T06:16:44.923Z,10.68
2019-06-08T06:19:17.023Z,9.80
2019-06-08T06:21:51.392Z,11.70
2019-06-08T06:24:24.128Z,17.23
2019-06-08T06:26:56.175Z,9.25
2019-06-08T06:29:28.076Z,11.73
2019-06-08T06:31:59.998Z,9.53
2019-06-08T06:34:32.018Z,7.75
2019-06-08T06:37:04.147Z,16.82
2019-06-08T06:39:36.181Z,15.72
2019-06-08T06:42:08.132Z,11.85
2019-06-08T06:44:40.028Z,14.50
2019-06-08T06:47:11.944Z,7.08
2019-06-08T06:49:44.534Z,19.27
2019-06-08T06:52:17.681Z,13.30
2019-06-08T06:54:51.247Z,20.32
2019-06-08T06:57:24.752Z,17.90
2019-06-08T06:59:56.707Z,13.45
2019-06-08T07:02:28.630Z,14.50
2019-06-08T07:05:00.791Z,13.13
2019-06-08T07:07:32.681Z,13.08
2019-06-08T07:10:06.925Z,14.80
2019-06-08T07:12:38.955Z,18.85
2019-06-08T07:15:10.765Z,22.20
2019-06-08T07:17:42.741Z,20.90
2019-06-08T07:20:14.661Z,27.67
2019-06-08T07:22:48.040Z,14.23
2019-06-08T07:25:20.018Z,12.40
2019-06-08T07:27:52.622Z,13.80
2019-06-08T07:30:25.406Z,11.55
2019-06-08T07:32:57.401Z,13.72
2019-06-08T07:35:29.241Z,17.27
2019-06-08T07:38:01.247Z,28.15
2019-06-08T07:40:33.244Z,34.75
2019-06-08T07:43:05.319Z,9.23
2019-06-08T07:45:37.509Z,13.10
2019-06-08T07:48:10.373Z,12.75
2019-06-08T07:50:42.290Z,11.48
2019-06-08T07:53:14.111Z,18.90
2019-06-08T07:55:47.261Z,16.48
2019-06-08T07:58:19.863Z,18.05
2019-06-08T08:00:52.949Z,11.38
2019-06-08T08:03:25.431Z,9.30
2019-06-08T08:05:58.522Z,9.13
2019-06-08T08:08:30.571Z,12.40
2019-06-08T08:11:02.662Z,18.20
2019-06-08T08:13:34.598Z,17.48
2019-06-08T08:16:06.538Z,14.95
2019-06-08T08:18:40.649Z,9.45
2019-06-08T08:21:22.372Z,8.70
2019-06-08T08:23:47.884Z,11.28
2019-06-08T08:26:20.140Z,7.03
2019-06-08T08:28:53.473Z,7.35
2019-06-08T08:31:27.890Z,7.03
2019-06-08T08:34:05.295Z,9.80
2019-06-08T08:36:33.462Z,7.87
2019-06-08T08:39:08.434Z,5.35
2019-06-08T08:41:40.608Z,12.75
2019-06-08T08:44:12.676Z,5.75
2019-06-08T08:46:44.520Z,10.20
2019-06-08T08:49:18.252Z,5.80
2019-06-08T08:51:51.042Z,8.63
2019-06-08T08:54:24.407Z,14.18
2019-06-08T08:57:01.120Z,12.03
2019-06-08T08:59:30.982Z,8.23
2019-06-08T09:02:03.220Z,7.70
2019-06-08T09:04:37.851Z,8.48
2019-06-08T09:07:10.549Z,9.30
2019-06-08T09:09:42.464Z,8.25
2019-06-08T09:12:14.605Z,3.77
2019-06-08T09:14:47.968Z,8.03
2019-06-08T09:17:20.168Z,4.83
2019-06-08T09:19:52.864Z,8.63
2019-06-08T09:22:28.182Z,6.03
2019-06-08T09:25:03.051Z,7.78
2019-06-08T09:27:33.495Z,9.63
2019-06-08T09:30:08.133Z,10.40
2019-06-08T09:32:39.723Z,6.40
2019-06-08T09:35:13.777Z,9.10
2019-06-08T09:37:48.397Z,13.40
2019-06-08T09:40:19.399Z,10.95
2019-06-08T09:42:55.521Z,8.70
2019-06-08T09:45:25.375Z,7.92
2019-06-08T09:48:00.428Z,12.33
2019-06-08T09:50:31.143Z,14.87
2019-06-08T09:53:22.333Z,7.47
2019-06-08T09:55:38.196Z,9.00
2019-06-08T09:58:11.761Z,6.20
2019-06-08T10:00:44.193Z,7.08
2019-06-08T10:03:18.422Z,16.55
2019-06-08T10:05:49.901Z,16.60
2019-06-08T10:08:23.421Z,22.27
2019-06-08T10:10:56.564Z,8.58
2019-06-08T10:13:30.532Z,15.30
2019-06-08T10:16:05.670Z,11.03
2019-06-08T10:18:38.643Z,14.83
2019-06-08T10:21:10.648Z,22.67
2019-06-08T10:23:42.542Z,29.82
2019-06-08T10:26:14.593Z,28.32
2019-06-08T10:28:48.222Z,24.27
2019-06-08T10:31:27.654Z,16.75
2019-06-08T10:33:56.313Z,19.98
2019-06-08T10:36:30.230Z,19.40
2019-06-08T10:39:07.242Z,19.73
2019-06-08T10:41:38.692Z,13.68
2019-06-08T10:44:13.812Z,12.18
2019-06-08T10:46:44.192Z,12.25
2019-06-08T10:49:18.428Z,7.60
2019-06-08T10:51:49.983Z,12.37
2019-06-08T10:54:21.849Z,24.43
2019-06-08T10:56:54.076Z,27.70
2019-06-08T10:59:29.073Z,13.80
2019-06-08T11:02:02.732Z,7.15
2019-06-08T11:04:38.625Z,14.50
2019-06-08T11:07:13.781Z,9.48
2019-06-08T11:09:43.661Z,15.98
2019-06-08T11:12:18.222Z,10.60
2019-06-08T11:14:49.632Z,10.75
2019-06-08T11:17:21.925Z,11.40
2019-06-08T11:19:54.063Z,9.13
2019-06-08T11:22:27.889Z,8.35
2019-06-08T11:25:01.976Z,13.03
2019-06-08T11:27:34.367Z,15.40
2019-06-08T11:30:15.439Z,18.65
2019-06-08T11:32:40.844Z,28.32
2019-06-08T11:35:13.086Z,21.20
2019-06-08T11:37:45.386Z,17.70
2019-06-08T11:40:20.680Z,12.03
2019-06-08T11:42:51.467Z,13.05
2019-06-08T11:45:23.427Z,11.03
2019-06-08T11:47:58.209Z,14.87
2019-06-08T11:50:42.119Z,14.23
2019-06-08T11:53:14.910Z,17.55
2019-06-08T11:55:51.165Z,12.80
2019-06-08T11:58:23.104Z,14.18
2019-06-08T12:01:01.399Z,14.23
2019-06-08T12:03:32.008Z,11.57
2019-06-08T12:06:04.517Z,14.55
2019-06-08T12:08:38.318Z,8.43
2019-06-08T12:11:16.417Z,13.35
2019-06-08T12:13:44.186Z,15.95
2019-06-08T12:16:21.906Z,18.73
2019-06-08T12:18:49.834Z,37.80
2019-06-08T12:21:21.815Z,30.77
2019-06-08T12:23:54.716Z,17.95
2019-06-08T12:26:28.687Z,21.73
2019-06-08T12:29:01.300Z,25.65
2019-06-08T12:31:33.450Z,17.52
2019-06-08T12:34:05.521Z,12.60
2019-06-08T12:36:38.231Z,12.65
2019-06-08T12:39:12.036Z,6.60
2019-06-08T12:41:44.078Z,7.55
2019-06-08T12:44:19.893Z,6.47
2019-06-08T12:46:50.025Z,9.88
2019-06-08T12:49:22.879Z,13.15
2019-06-08T12:51:54.793Z,10.80
2019-06-08T12:54:28.383Z,20.72
2019-06-08T12:57:01.076Z,17.02
2019-06-08T12:59:34.578Z,11.97
2019-06-08T13:02:10.560Z,9.95
2019-06-08T13:04:39.835Z,16.30
2019-06-08T13:07:13.034Z,11.60
2019-06-08T13:09:48.170Z,6.47
2019-06-08T13:12:20.387Z,7.40
2019-06-08T13:14:52.892Z,9.78
2019-06-08T13:17:24.963Z,9.43
2019-06-08T13:19:58.171Z,12.85
2019-06-08T13:22:31.472Z,19.92
2019-06-08T13:25:19.149Z,11.53
2019-06-08T13:27:38.358Z,5.95
2019-06-08T13:30:11.545Z,11.18
2019-06-08T13:32:44.518Z,12.90
2019-06-08T13:35:19.149Z,3.83
2019-06-08T13:37:50.147Z,7.20
2019-06-08T13:40:24.077Z,8.10
2019-06-08T13:42:58.128Z,9.40
2019-06-08T13:45:29.552Z,7.08
2019-06-08T13:48:04.564Z,14.63
2019-06-08T13:50:36.508Z,13.60
2019-06-08T13:53:10.776Z,12.45
2019-06-08T13:55:53.296Z,6.55
2019-06-08T13:58:21.851Z,12.28
2019-06-08T14:00:50.806Z,9.65
2019-06-08T14:03:23.320Z,7.22
2019-06-08T14:05:57.088Z,10.50
2019-06-08T14:08:32.833Z,11.22
2019-06-08T14:11:02.787Z,9.33
2019-06-08T14:13:34.811Z,14.90
2019-06-08T14:16:11.207Z,10.43
2019-06-08T14:18:40.935Z,10.70
2019-06-08T14:21:13.205Z,8.70
2019-06-08T14:23:45.478Z,11.83
2019-06-08T14:26:19.733Z,10.68
2019-06-08T14:28:53.366Z,9.85
2019-06-08T14:31:29.886Z,10.18
2019-06-08T14:33:59.982Z,8.70
2019-06-08T14:36:33.763Z,8.03
2019-06-08T14:39:10.444Z,9.80
2019-06-08T14:41:40.488Z,8.03
2019-06-08T14:44:12.622Z,8.13
2019-06-08T14:46:47.981Z,12.47
2019-06-08T14:49:23.829Z,8.23
2019-06-08T14:51:52.945Z,6.55
2019-06-08T14:54:27.214Z,11.70
2019-06-08T14:56:58.609Z,13.85
2019-06-08T14:59:31.794Z,6.35
2019-06-08T15:02:03.959Z,9.40
2019-06-08T15:04:36.796Z,8.05
2019-06-08T15:07:09.669Z,8.98
2019-06-08T15:09:43.625Z,6.12
2019-06-08T15:12:17.680Z,6.90
2019-06-08T15:14:49.506Z,9.50
2019-06-08T15:17:21.855Z,7.53
2019-06-08T15:19:53.935Z,6.92
2019-06-08T15:22:26.819Z,7.22
2019-06-08T15:25:01.111Z,11.85
2019-06-08T15:27:33.528Z,10.63
2019-06-08T15:30:06.091Z,9.85
2019-06-08T15:32:38.794Z,8.58
2019-06-08T15:35:12.182Z,7.20
2019-06-08T15:37:44.308Z,11.18
2019-06-08T15:40:17.694Z,6.87
2019-06-08T15:42:49.801Z,15.00
2019-06-08T15:45:22.076Z,15.45
2019-06-08T15:47:58.621Z,28.00
2019-06-08T15:50:29.663Z,30.12
2019-06-08T15:53:04.110Z,22.95
2019-06-08T15:55:37.930Z,14.30
2019-06-08T15:58:09.947Z,12.58
2019-06-08T16:00:41.908Z,8.28
2019-06-08T16:03:13.892Z,12.20
2019-06-08T16:05:46.160Z,15.28
2019-06-08T16:08:18.227Z,8.35
2019-06-08T16:10:53.266Z,9.03
2019-06-08T16:13:26.693Z,7.97
2019-06-08T16:15:58.663Z,8.30
2019-06-08T16:18:31.742Z,8.50
2019-06-08T16:21:03.981Z,13.90
2019-06-08T16:23:36.178Z,10.18
2019-06-08T16:26:10.448Z,9.70
2019-06-08T16:28:42.617Z,10.78
2019-06-08T16:31:16.677Z,14.35
2019-06-08T16:33:48.807Z,31.60
2019-06-08T16:36:20.966Z,32.10
2019-06-08T16:38:53.083Z,25.43
2019-06-08T16:41:25.305Z,46.65
2019-06-08T16:43:57.299Z,46.68
2019-06-08T16:46:30.110Z,34.63
2019-06-08T16:49:04.884Z,24.57
2019-06-08T16:51:36.796Z,30.82
2019-06-08T16:54:09.093Z,16.70
2019-06-08T16:56:41.283Z,19.77
2019-06-08T16:59:13.351Z,14.50
2019-06-08T17:01:45.415Z,10.28
2019-06-08T17:04:17.479Z,9.28
2019-06-08T17:06:49.754Z,15.38
2019-06-08T17:09:21.708Z,14.38
2019-06-08T17:11:55.817Z,16.60
2019-06-08T17:14:29.971Z,22.60
2019-06-08T17:17:02.923Z,18.42
2019-06-08T17:19:36.151Z,23.52
2019-06-08T17:22:08.389Z,15.35
2019-06-08T17:24:40.787Z,20.90
2019-06-08T17:27:26.330Z,18.27
2019-06-08T17:29:46.702Z,21.45
2019-06-08T17:32:18.794Z,24.20
2019-06-08T17:34:50.833Z,25.55
2019-06-08T17:37:23.025Z,18.98
2019-06-08T17:39:54.987Z,18.75
2019-06-08T17:42:27.053Z,14.28
2019-06-08T17:45:01.771Z,18.67
2019-06-08T17:47:34.300Z,18.37
2019-06-08T17:50:07.219Z,28.40
2019-06-08T17:52:39.072Z,22.25
2019-06-08T17:55:11.273Z,21.37
2019-06-08T17:57:52.781Z,13.05
2019-06-08T18:00:17.262Z,13.62
2019-06-08T18:02:49.285Z,12.80
2019-06-08T18:05:21.290Z,12.95
2019-06-08T18:07:53.333Z,15.23
2019-06-08T18:10:27.732Z,12.25
2019-06-08T18:12:59.101Z,10.13
2019-06-08T18:15:31.040Z,9.60
2019-06-08T18:18:03.529Z,15.85
2019-06-08T18:20:38.584Z,23.62
2019-06-08T18:23:10.826Z,13.00
2019-06-08T18:25:43.438Z,10.40
2019-06-08T18:28:17.239Z,27.02
2019-06-08T18:30:50.234Z,14.10
2019-06-08T18:33:22.278Z,18.17
2019-06-08T18:35:57.705Z,15.23
2019-06-08T18:38:31.118Z,14.28
2019-06-08T18:41:03.921Z,18.55
2019-06-08T18:43:39.258Z,9.88
2019-06-08T18:46:09.873Z,11.22
2019-06-08T18:48:44.864Z,9.98
2019-06-08T18:51:17.504Z,18.98
2019-06-08T18:54:07.480Z,7.72
2019-06-08T18:56:22.608Z,13.05
2019-06-08T18:58:54.599Z,21.57
2019-06-08T19:01:27.961Z,20.37
2019-06-08T19:04:00.070Z,18.42
2019-06-08T19:06:32.432Z,22.22
2019-06-08T19:09:07.602Z,25.65
2019-06-08T19:11:42.150Z,18.90
2019-06-08T19:14:13.950Z,14.25
2019-06-08T19:16:49.885Z,12.70
2019-06-08T19:19:20.998Z,16.12
2019-06-08T19:21:54.328Z,18.60
2019-06-08T19:24:28.041Z,26.27
2019-06-08T19:27:00.195Z,25.02
2019-06-08T19:29:32.278Z,32.98
2019-06-08T19:32:04.348Z,35.98
2019-06-08T19:34:39.269Z,30.23
2019-06-08T19:37:10.930Z,38.83
2019-06-08T19:39:46.431Z,23.75
2019-06-08T19:42:17.567Z,33.02
2019-06-08T19:44:59.385Z,37.25
2019-06-08T19:47:27.234Z,23.00
2019-06-08T19:49:59.432Z,21.23
2019-06-08T19:52:31.599Z,13.10
2019-06-08T19:55:07.913Z,8.80
2019-06-08T19:57:39.746Z,10.48
2019-06-08T20:00:13.751Z,9.10
2019-06-08T20:02:47.808Z,9.45
2019-06-08T20:05:19.494Z,9.30
2019-06-08T20:07:53.366Z,14.75
2019-06-08T20:10:27.888Z,13.43
2019-06-08T20:12:59.291Z,8.63
2019-06-08T20:15:31.396Z,8.88
2019-06-08T20:18:03.508Z,12.07
2019-06-08T20:20:35.471Z,12.63
2019-06-08T20:23:09.585Z,19.15
2019-06-08T20:25:41.422Z,27.55
2019-06-08T20:28:13.412Z,27.60
2019-06-08T20:30:46.666Z,26.27
2019-06-08T20:33:20.001Z,22.87
2019-06-08T20:35:53.891Z,23.57
2019-06-08T20:38:37.871Z,16.02
2019-06-08T20:41:00.562Z,14.78
2019-06-08T20:43:32.567Z,18.42
2019-06-08T20:46:04.636Z,10.48
2019-06-08T20:48:37.839Z,17.32
2019-06-08T20:51:09.872Z,15.53
2019-06-08T20:53:42.384Z,9.63
2019-06-08T20:56:14.559Z,15.43
2019-06-08T20:58:48.332Z,15.30
2019-06-08T21:01:21.926Z,15.40
2019-06-08T21:03:54.281Z,9.85
2019-06-08T21:06:27.875Z,14.15
2019-06-08T21:09:00.366Z,17.57
2019-06-08T21:11:34.066Z,10.70
2019-06-08T21:14:06.054Z,9.18
2019-06-08T21:16:38.371Z,15.13
2019-06-08T21:19:12.240Z,18.27
2019-06-08T21:21:45.675Z,14.85
2019-06-08T21:24:19.219Z,21.10
2019-06-08T21:26:54.112Z,21.37
2019-06-08T21:29:28.827Z,21.10
2019-06-08T21:32:02.372Z,16.95
2019-06-08T21:34:33.515Z,20.70
2019-06-08T21:37:05.802Z,37.05
2019-06-08T21:39:39.082Z,37.15
2019-06-08T21:42:12.314Z,46.88
2019-06-08T21:44:44.250Z,40.92
2019-06-08T21:47:16.515Z,29.27
2019-06-08T21:49:51.022Z,28.62
2019-06-08T21:52:22.160Z,29.60
2019-06-08T21:54:54.411Z,30.92
2019-06-08T21:57:28.554Z,40.20
2019-06-08T22:00:19.204Z,35.80
2019-06-08T22:02:37.597Z,30.05
2019-06-08T22:05:09.777Z,34.35
2019-06-08T22:07:41.887Z,36.38
2019-06-08T22:10:14.092Z,41.10
2019-06-08T22:12:48.293Z,26.93
2019-06-08T22:15:20.065Z,30.75
2019-06-08T22:17:53.116Z,37.75
2019-06-08T22:20:27.784Z,27.05
2019-06-08T22:23:00.977Z,42.85
2019-06-08T22:25:33.387Z,30.97
2019-06-08T22:28:07.243Z,25.35
2019-06-08T22:30:42.809Z,18.45
2019-06-08T22:33:12.905Z,9.23
2019-06-08T22:35:47.723Z,10.20
2019-06-08T22:38:19.342Z,17.62
2019-06-08T22:40:52.665Z,16.00
2019-06-08T22:43:25.906Z,23.57
2019-06-08T22:46:00.177Z,23.10
2019-06-08T22:48:32.883Z,24.82
2019-06-08T22:51:08.086Z,19.10
2019-06-08T22:53:40.307Z,19.17
2019-06-08T22:56:12.996Z,17.52
2019-06-08T22:58:47.933Z,25.92
2019-06-08T23:01:19.461Z,26.62
2019-06-08T23:03:51.469Z,24.80
2019-06-08T23:06:23.431Z,27.50
2019-06-08T23:08:59.793Z,23.77
2019-06-08T23:11:28.927Z,25.32
2019-06-08T23:14:01.431Z,20.70
2019-06-08T23:16:34.532Z,20.00
2019-06-08T23:19:08.026Z,17.30
2019-06-08T23:21:40.159Z,20.82
2019-06-08T23:24:12.147Z,19.02
2019-06-08T23:26:43.979Z,19.23
2019-06-08T23:29:17.890Z,17.77
2019-06-08T23:31:49.635Z,15.43
2019-06-08T23:34:23.330Z,20.08
2019-06-08T23:37:02.040Z,16.65
2019-06-08T23:39:28.743Z,21.45
2019-06-08T23:42:01.644Z,20.23
2019-06-08T23:44:33.629Z,12.37
2019-06-08T23:47:06.045Z,13.55
2019-06-08T23:49:38.161Z,10.93
2019-06-08T23:52:11.689Z,14.83
2019-06-08T23:54:43.711Z,9.63
2019-06-08T23:57:17.889Z,9.73
2019-06-08T23:59:49.210Z,9.65
